sensor_id;sensor_type;location;lat;lon;timestamp;P1;durP1;ratioP1;P2;durP2;ratioP2
16543;SDS011;8384;47.996;7.786;2023-07-31T00:01:43;1.90;;;1.70;;
16543;SDS011;8384;47.996;7.786;2023-07-31T00:04:09;2.23;;;1.60;;
16543;SDS011;8384;47.996;7.786;2023-07-31T00:06:34;2.50;;;1.53;;
16543;SDS011;8384;47.996;7.786;2023-07-31T00:08:59;2.93;;;2.00;;
16543;SDS011;8384;47.996;7.786;2023-07-31T00:11:24;3.50;;;2.10;;
16543;SDS011;8384;47.996;7.786;2023-07-31T00:13:50;2.53;;;1.67;;
16543;SDS011;8384;47.996;7.786;2023-07-31T00:16:15;2.47;;;2.00;;
16543;SDS011;8384;47.996;7.786;2023-07-31T00:18:40;4.40;;;2.30;;
16543;SDS011;8384;47.996;7.786;2023-07-31T00:21:06;3.80;;;2.00;;
16543;SDS011;8384;47.996;7.786;2023-07-31T00:23:31;3.50;;;1.90;;
16543;SDS011;8384;47.996;7.786;2023-07-31T00:25:56;4.40;;;2.50;;
16543;SDS011;8384;47.996;7.786;2023-07-31T00:28:21;3.17;;;1.93;;
16543;SDS011;8384;47.996;7.786;2023-07-31T00:30:47;4.07;;;1.97;;
16543;SDS011;8384;47.996;7.786;2023-07-31T00:33:12;4.57;;;1.90;;
16543;SDS011;8384;47.996;7.786;2023-07-31T00:35:37;4.20;;;2.10;;
16543;SDS011;8384;47.996;7.786;2023-07-31T00:38:02;3.60;;;2.20;;
16543;SDS011;8384;47.996;7.786;2023-07-31T00:40:28;4.27;;;2.27;;
16543;SDS011;8384;47.996;7.786;2023-07-31T00:42:53;4.97;;;2.30;;
16543;SDS011;8384;47.996;7.786;2023-07-31T00:45:18;4.90;;;2.50;;
16543;SDS011;8384;47.996;7.786;2023-07-31T00:47:44;3.67;;;2.30;;
16543;SDS011;8384;47.996;7.786;2023-07-31T00:50:09;2.53;;;2.20;;
16543;SDS011;8384;47.996;7.786;2023-07-31T00:52:35;3.67;;;2.10;;
16543;SDS011;8384;47.996;7.786;2023-07-31T00:55:00;3.27;;;2.47;;
16543;SDS011;8384;47.996;7.786;2023-07-31T00:57:26;3.23;;;2.10;;
16543;SDS011;8384;47.996;7.786;2023-07-31T00:59:51;5.00;;;2.20;;
16543;SDS011;8384;47.996;7.786;2023-07-31T01:02:16;4.03;;;2.60;;
16543;SDS011;8384;47.996;7.786;2023-07-31T01:04:42;5.10;;;2.53;;
16543;SDS011;8384;47.996;7.786;2023-07-31T01:07:11;3.97;;;2.67;;
16543;SDS011;8384;47.996;7.786;2023-07-31T01:12:13;3.40;;;2.50;;
16543;SDS011;8384;47.996;7.786;2023-07-31T01:15:03;4.27;;;2.40;;
16543;SDS011;8384;47.996;7.786;2023-07-31T01:17:29;3.13;;;2.40;;
16543;SDS011;8384;47.996;7.786;2023-07-31T01:19:55;3.50;;;2.80;;
16543;SDS011;8384;47.996;7.786;2023-07-31T01:25:42;2.63;;;2.40;;
16543;SDS011;8384;47.996;7.786;2023-07-31T01:28:13;3.13;;;2.13;;
16543;SDS011;8384;47.996;7.786;2023-07-31T01:30:43;3.17;;;2.80;;
16543;SDS011;8384;47.996;7.786;2023-07-31T01:33:12;5.20;;;2.43;;
16543;SDS011;8384;47.996;7.786;2023-07-31T01:35:39;4.20;;;2.37;;
16543;SDS011;8384;47.996;7.786;2023-07-31T01:38:05;5.07;;;2.43;;
16543;SDS011;8384;47.996;7.786;2023-07-31T01:40:30;2.70;;;2.30;;
16543;SDS011;8384;47.996;7.786;2023-07-31T01:42:55;5.13;;;2.70;;
16543;SDS011;8384;47.996;7.786;2023-07-31T01:45:21;3.50;;;2.30;;
16543;SDS011;8384;47.996;7.786;2023-07-31T01:47:46;4.03;;;1.73;;
16543;SDS011;8384;47.996;7.786;2023-07-31T01:50:11;3.90;;;1.90;;
16543;SDS011;8384;47.996;7.786;2023-07-31T01:52:37;3.23;;;1.97;;
16543;SDS011;8384;47.996;7.786;2023-07-31T01:55:02;2.87;;;1.60;;
16543;SDS011;8384;47.996;7.786;2023-07-31T01:57:27;2.13;;;1.73;;
16543;SDS011;8384;47.996;7.786;2023-07-31T01:59:53;2.20;;;1.57;;
16543;SDS011;8384;47.996;7.786;2023-07-31T02:02:18;2.33;;;1.70;;
16543;SDS011;8384;47.996;7.786;2023-07-31T02:04:44;3.17;;;1.57;;
16543;SDS011;8384;47.996;7.786;2023-07-31T02:07:09;3.57;;;2.10;;
16543;SDS011;8384;47.996;7.786;2023-07-31T02:09:35;1.90;;;1.67;;
16543;SDS011;8384;47.996;7.786;2023-07-31T02:12:00;3.93;;;2.07;;
16543;SDS011;8384;47.996;7.786;2023-07-31T02:14:25;2.83;;;1.77;;
16543;SDS011;8384;47.996;7.786;2023-07-31T02:16:51;3.67;;;1.70;;
16543;SDS011;8384;47.996;7.786;2023-07-31T02:19:16;5.30;;;1.87;;
16543;SDS011;8384;47.996;7.786;2023-07-31T02:21:41;2.63;;;1.40;;
16543;SDS011;8384;47.996;7.786;2023-07-31T02:24:06;3.53;;;1.60;;
16543;SDS011;8384;47.996;7.786;2023-07-31T02:26:32;3.00;;;1.80;;
16543;SDS011;8384;47.996;7.786;2023-07-31T02:28:57;2.73;;;2.00;;
16543;SDS011;8384;47.996;7.786;2023-07-31T02:31:22;2.87;;;1.70;;
16543;SDS011;8384;47.996;7.786;2023-07-31T02:33:47;3.73;;;1.90;;
16543;SDS011;8384;47.996;7.786;2023-07-31T02:36:13;5.13;;;2.00;;
16543;SDS011;8384;47.996;7.786;2023-07-31T02:38:39;2.70;;;1.60;;
16543;SDS011;8384;47.996;7.786;2023-07-31T02:41:04;2.13;;;1.60;;
16543;SDS011;8384;47.996;7.786;2023-07-31T02:43:30;3.50;;;1.93;;
16543;SDS011;8384;47.996;7.786;2023-07-31T02:45:55;2.47;;;1.50;;
16543;SDS011;8384;47.996;7.786;2023-07-31T02:48:20;5.03;;;2.27;;
16543;SDS011;8384;47.996;7.786;2023-07-31T02:50:47;2.47;;;1.73;;
16543;SDS011;8384;47.996;7.786;2023-07-31T02:53:13;4.73;;;1.70;;
16543;SDS011;8384;47.996;7.786;2023-07-31T02:55:38;3.10;;;2.03;;
16543;SDS011;8384;47.996;7.786;2023-07-31T02:58:03;2.50;;;1.60;;
16543;SDS011;8384;47.996;7.786;2023-07-31T03:00:29;4.83;;;1.47;;
16543;SDS011;8384;47.996;7.786;2023-07-31T03:02:54;4.90;;;1.80;;
16543;SDS011;8384;47.996;7.786;2023-07-31T03:05:19;3.97;;;1.73;;
16543;SDS011;8384;47.996;7.786;2023-07-31T03:07:45;3.17;;;1.70;;
16543;SDS011;8384;47.996;7.786;2023-07-31T03:10:10;2.13;;;1.80;;
16543;SDS011;8384;47.996;7.786;2023-07-31T03:12:35;2.83;;;1.83;;
16543;SDS011;8384;47.996;7.786;2023-07-31T03:15:00;2.83;;;1.50;;
16543;SDS011;8384;47.996;7.786;2023-07-31T03:17:26;3.17;;;1.60;;
16543;SDS011;8384;47.996;7.786;2023-07-31T03:19:51;2.63;;;1.70;;
16543;SDS011;8384;47.996;7.786;2023-07-31T03:22:16;3.60;;;1.70;;
16543;SDS011;8384;47.996;7.786;2023-07-31T03:24:41;2.63;;;1.67;;
16543;SDS011;8384;47.996;7.786;2023-07-31T03:27:07;2.77;;;1.73;;
16543;SDS011;8384;47.996;7.786;2023-07-31T03:29:32;3.07;;;1.60;;
16543;SDS011;8384;47.996;7.786;2023-07-31T03:31:57;2.67;;;1.40;;
16543;SDS011;8384;47.996;7.786;2023-07-31T03:34:24;4.33;;;2.03;;
16543;SDS011;8384;47.996;7.786;2023-07-31T03:36:49;3.13;;;1.90;;
16543;SDS011;8384;47.996;7.786;2023-07-31T03:39:14;4.67;;;1.80;;
16543;SDS011;8384;47.996;7.786;2023-07-31T03:41:39;2.53;;;1.63;;
16543;SDS011;8384;47.996;7.786;2023-07-31T03:44:05;4.47;;;1.80;;
16543;SDS011;8384;47.996;7.786;2023-07-31T03:46:30;2.97;;;1.50;;
16543;SDS011;8384;47.996;7.786;2023-07-31T03:48:55;4.73;;;2.17;;
16543;SDS011;8384;47.996;7.786;2023-07-31T03:51:21;2.73;;;1.70;;
16543;SDS011;8384;47.996;7.786;2023-07-31T03:53:46;2.53;;;1.70;;
16543;SDS011;8384;47.996;7.786;2023-07-31T03:56:11;2.87;;;1.77;;
16543;SDS011;8384;47.996;7.786;2023-07-31T03:58:36;4.93;;;1.80;;
16543;SDS011;8384;47.996;7.786;2023-07-31T04:01:02;2.13;;;1.30;;
16543;SDS011;8384;47.996;7.786;2023-07-31T04:03:28;4.53;;;1.77;;
16543;SDS011;8384;47.996;7.786;2023-07-31T04:05:54;3.17;;;1.83;;
16543;SDS011;8384;47.996;7.786;2023-07-31T04:08:23;3.17;;;1.67;;
16543;SDS011;8384;47.996;7.786;2023-07-31T04:10:49;2.50;;;1.80;;
16543;SDS011;8384;47.996;7.786;2023-07-31T04:13:14;4.73;;;2.43;;
16543;SDS011;8384;47.996;7.786;2023-07-31T04:15:40;3.33;;;2.00;;
16543;SDS011;8384;47.996;7.786;2023-07-31T04:18:05;3.23;;;1.67;;
16543;SDS011;8384;47.996;7.786;2023-07-31T04:20:30;3.33;;;1.70;;
16543;SDS011;8384;47.996;7.786;2023-07-31T04:22:56;3.30;;;1.67;;
16543;SDS011;8384;47.996;7.786;2023-07-31T04:25:21;2.90;;;1.90;;
16543;SDS011;8384;47.996;7.786;2023-07-31T04:27:46;2.13;;;1.47;;
16543;SDS011;8384;47.996;7.786;2023-07-31T04:30:12;2.17;;;1.47;;
16543;SDS011;8384;47.996;7.786;2023-07-31T04:32:37;4.40;;;1.70;;
16543;SDS011;8384;47.996;7.786;2023-07-31T04:35:03;3.23;;;1.83;;
16543;SDS011;8384;47.996;7.786;2023-07-31T04:37:28;4.47;;;1.70;;
16543;SDS011;8384;47.996;7.786;2023-07-31T04:39:53;3.93;;;1.90;;
16543;SDS011;8384;47.996;7.786;2023-07-31T04:42:19;4.07;;;1.93;;
16543;SDS011;8384;47.996;7.786;2023-07-31T04:44:44;4.80;;;1.90;;
16543;SDS011;8384;47.996;7.786;2023-07-31T04:47:09;3.23;;;1.63;;
16543;SDS011;8384;47.996;7.786;2023-07-31T04:49:35;3.57;;;1.80;;
16543;SDS011;8384;47.996;7.786;2023-07-31T04:52:00;3.03;;;1.67;;
16543;SDS011;8384;47.996;7.786;2023-07-31T04:54:25;3.13;;;1.77;;
16543;SDS011;8384;47.996;7.786;2023-07-31T04:56:50;3.40;;;1.90;;
16543;SDS011;8384;47.996;7.786;2023-07-31T04:59:17;4.43;;;1.70;;
16543;SDS011;8384;47.996;7.786;2023-07-31T05:01:42;3.87;;;2.23;;
16543;SDS011;8384;47.996;7.786;2023-07-31T05:04:08;6.00;;;1.93;;
16543;SDS011;8384;47.996;7.786;2023-07-31T05:06:33;3.43;;;1.90;;
16543;SDS011;8384;47.996;7.786;2023-07-31T05:08:58;2.80;;;1.70;;
16543;SDS011;8384;47.996;7.786;2023-07-31T05:11:23;3.93;;;1.70;;
16543;SDS011;8384;47.996;7.786;2023-07-31T05:13:49;2.70;;;1.70;;
16543;SDS011;8384;47.996;7.786;2023-07-31T05:16:14;4.77;;;1.97;;
16543;SDS011;8384;47.996;7.786;2023-07-31T05:18:39;3.77;;;1.77;;
16543;SDS011;8384;47.996;7.786;2023-07-31T05:21:05;4.03;;;1.93;;
16543;SDS011;8384;47.996;7.786;2023-07-31T05:23:30;3.20;;;1.70;;
16543;SDS011;8384;47.996;7.786;2023-07-31T05:26:02;3.00;;;1.40;;
16543;SDS011;8384;47.996;7.786;2023-07-31T05:28:28;3.40;;;1.73;;
16543;SDS011;8384;47.996;7.786;2023-07-31T05:30:58;3.80;;;1.80;;
16543;SDS011;8384;47.996;7.786;2023-07-31T05:33:24;3.47;;;1.60;;
16543;SDS011;8384;47.996;7.786;2023-07-31T05:35:49;4.30;;;1.67;;
16543;SDS011;8384;47.996;7.786;2023-07-31T05:38:14;5.37;;;1.90;;
16543;SDS011;8384;47.996;7.786;2023-07-31T05:40:40;4.33;;;2.03;;
16543;SDS011;8384;47.996;7.786;2023-07-31T05:43:05;2.03;;;1.83;;
16543;SDS011;8384;47.996;7.786;2023-07-31T05:45:33;4.60;;;2.10;;
16543;SDS011;8384;47.996;7.786;2023-07-31T05:47:58;2.63;;;1.90;;
16543;SDS011;8384;47.996;7.786;2023-07-31T05:50:23;2.33;;;1.70;;
16543;SDS011;8384;47.996;7.786;2023-07-31T05:52:48;3.47;;;1.80;;
16543;SDS011;8384;47.996;7.786;2023-07-31T05:55:14;3.43;;;1.77;;
16543;SDS011;8384;47.996;7.786;2023-07-31T05:57:39;3.30;;;1.60;;
16543;SDS011;8384;47.996;7.786;2023-07-31T06:00:05;2.97;;;1.70;;
16543;SDS011;8384;47.996;7.786;2023-07-31T06:02:31;4.20;;;2.03;;
16543;SDS011;8384;47.996;7.786;2023-07-31T06:05:01;3.40;;;2.17;;
16543;SDS011;8384;47.996;7.786;2023-07-31T06:07:26;3.53;;;1.93;;
16543;SDS011;8384;47.996;7.786;2023-07-31T06:09:52;5.90;;;2.30;;
16543;SDS011;8384;47.996;7.786;2023-07-31T06:12:19;4.40;;;2.43;;
16543;SDS011;8384;47.996;7.786;2023-07-31T06:14:45;4.67;;;2.27;;
16543;SDS011;8384;47.996;7.786;2023-07-31T06:17:10;5.03;;;2.57;;
16543;SDS011;8384;47.996;7.786;2023-07-31T06:19:35;3.97;;;2.30;;
16543;SDS011;8384;47.996;7.786;2023-07-31T06:22:00;3.10;;;1.90;;
16543;SDS011;8384;47.996;7.786;2023-07-31T06:24:26;4.23;;;2.00;;
16543;SDS011;8384;47.996;7.786;2023-07-31T06:26:51;5.83;;;2.50;;
16543;SDS011;8384;47.996;7.786;2023-07-31T06:29:16;3.50;;;1.87;;
16543;SDS011;8384;47.996;7.786;2023-07-31T06:31:42;4.30;;;1.70;;
16543;SDS011;8384;47.996;7.786;2023-07-31T06:34:07;5.17;;;2.60;;
16543;SDS011;8384;47.996;7.786;2023-07-31T06:36:32;3.43;;;2.00;;
16543;SDS011;8384;47.996;7.786;2023-07-31T06:38:58;4.23;;;1.90;;
16543;SDS011;8384;47.996;7.786;2023-07-31T06:41:23;4.93;;;2.40;;
16543;SDS011;8384;47.996;7.786;2023-07-31T06:43:48;3.53;;;1.90;;
16543;SDS011;8384;47.996;7.786;2023-07-31T06:46:13;2.27;;;1.80;;
16543;SDS011;8384;47.996;7.786;2023-07-31T06:48:39;3.17;;;1.90;;
16543;SDS011;8384;47.996;7.786;2023-07-31T06:51:04;8.17;;;2.00;;
16543;SDS011;8384;47.996;7.786;2023-07-31T06:53:29;2.70;;;1.80;;
16543;SDS011;8384;47.996;7.786;2023-07-31T06:55:55;3.27;;;1.80;;
16543;SDS011;8384;47.996;7.786;2023-07-31T06:58:20;2.73;;;1.60;;
16543;SDS011;8384;47.996;7.786;2023-07-31T07:00:45;5.40;;;2.00;;
16543;SDS011;8384;47.996;7.786;2023-07-31T07:03:11;3.47;;;1.80;;
16543;SDS011;8384;47.996;7.786;2023-07-31T07:05:36;4.13;;;1.90;;
16543;SDS011;8384;47.996;7.786;2023-07-31T07:08:01;2.67;;;1.80;;
16543;SDS011;8384;47.996;7.786;2023-07-31T07:10:26;4.87;;;2.00;;
16543;SDS011;8384;47.996;7.786;2023-07-31T07:12:52;2.87;;;1.77;;
16543;SDS011;8384;47.996;7.786;2023-07-31T07:15:17;3.83;;;1.63;;
16543;SDS011;8384;47.996;7.786;2023-07-31T07:17:43;3.27;;;1.50;;
16543;SDS011;8384;47.996;7.786;2023-07-31T07:20:08;3.23;;;1.70;;
16543;SDS011;8384;47.996;7.786;2023-07-31T07:22:34;4.63;;;1.90;;
16543;SDS011;8384;47.996;7.786;2023-07-31T07:24:59;2.87;;;1.80;;
16543;SDS011;8384;47.996;7.786;2023-07-31T07:27:24;3.27;;;1.77;;
16543;SDS011;8384;47.996;7.786;2023-07-31T07:29:50;5.37;;;1.90;;
16543;SDS011;8384;47.996;7.786;2023-07-31T07:32:19;3.93;;;2.10;;
16543;SDS011;8384;47.996;7.786;2023-07-31T07:34:47;4.07;;;1.83;;
16543;SDS011;8384;47.996;7.786;2023-07-31T07:37:13;3.77;;;1.77;;
16543;SDS011;8384;47.996;7.786;2023-07-31T07:39:38;4.77;;;1.70;;
16543;SDS011;8384;47.996;7.786;2023-07-31T07:42:03;4.33;;;2.10;;
16543;SDS011;8384;47.996;7.786;2023-07-31T07:44:29;2.73;;;1.60;;
16543;SDS011;8384;47.996;7.786;2023-07-31T07:46:54;5.23;;;2.23;;
16543;SDS011;8384;47.996;7.786;2023-07-31T07:49:19;3.63;;;1.97;;
16543;SDS011;8384;47.996;7.786;2023-07-31T07:51:47;3.20;;;1.50;;
16543;SDS011;8384;47.996;7.786;2023-07-31T07:54:13;3.17;;;1.90;;
16543;SDS011;8384;47.996;7.786;2023-07-31T07:56:39;3.10;;;1.80;;
16543;SDS011;8384;47.996;7.786;2023-07-31T07:59:04;4.23;;;1.90;;
16543;SDS011;8384;47.996;7.786;2023-07-31T08:01:29;4.00;;;1.77;;
16543;SDS011;8384;47.996;7.786;2023-07-31T08:03:55;3.57;;;1.90;;
16543;SDS011;8384;47.996;7.786;2023-07-31T08:06:20;3.53;;;1.90;;
16543;SDS011;8384;47.996;7.786;2023-07-31T08:08:46;2.83;;;1.70;;
16543;SDS011;8384;47.996;7.786;2023-07-31T08:11:11;3.80;;;1.93;;
16543;SDS011;8384;47.996;7.786;2023-07-31T08:13:36;4.57;;;1.87;;
16543;SDS011;8384;47.996;7.786;2023-07-31T08:16:02;5.43;;;1.87;;
16543;SDS011;8384;47.996;7.786;2023-07-31T08:18:28;4.83;;;2.23;;
16543;SDS011;8384;47.996;7.786;2023-07-31T08:20:54;3.40;;;1.83;;
16543;SDS011;8384;47.996;7.786;2023-07-31T08:23:19;4.70;;;1.83;;
16543;SDS011;8384;47.996;7.786;2023-07-31T08:25:44;6.23;;;1.77;;
16543;SDS011;8384;47.996;7.786;2023-07-31T08:28:10;3.07;;;1.80;;
16543;SDS011;8384;47.996;7.786;2023-07-31T08:30:35;3.87;;;1.80;;
16543;SDS011;8384;47.996;7.786;2023-07-31T08:33:00;3.00;;;1.67;;
16543;SDS011;8384;47.996;7.786;2023-07-31T08:35:26;2.77;;;1.97;;
16543;SDS011;8384;47.996;7.786;2023-07-31T08:37:54;5.43;;;2.07;;
16543;SDS011;8384;47.996;7.786;2023-07-31T08:40:20;4.37;;;2.10;;
16543;SDS011;8384;47.996;7.786;2023-07-31T08:42:46;5.73;;;1.90;;
16543;SDS011;8384;47.996;7.786;2023-07-31T08:45:14;2.90;;;1.87;;
16543;SDS011;8384;47.996;7.786;2023-07-31T08:47:42;5.37;;;1.90;;
16543;SDS011;8384;47.996;7.786;2023-07-31T08:50:09;4.87;;;1.83;;
16543;SDS011;8384;47.996;7.786;2023-07-31T08:52:36;3.73;;;1.80;;
16543;SDS011;8384;47.996;7.786;2023-07-31T08:55:02;4.13;;;1.60;;
16543;SDS011;8384;47.996;7.786;2023-07-31T08:57:27;4.23;;;2.00;;
16543;SDS011;8384;47.996;7.786;2023-07-31T08:59:53;3.27;;;1.60;;
16543;SDS011;8384;47.996;7.786;2023-07-31T09:02:19;3.93;;;1.83;;
16543;SDS011;8384;47.996;7.786;2023-07-31T09:04:46;4.93;;;1.70;;
16543;SDS011;8384;47.996;7.786;2023-07-31T09:07:11;3.43;;;1.70;;
16543;SDS011;8384;47.996;7.786;2023-07-31T09:09:38;2.87;;;1.77;;
16543;SDS011;8384;47.996;7.786;2023-07-31T09:12:04;4.27;;;1.70;;
16543;SDS011;8384;47.996;7.786;2023-07-31T09:14:30;4.97;;;1.80;;
16543;SDS011;8384;47.996;7.786;2023-07-31T09:16:58;3.40;;;1.90;;
16543;SDS011;8384;47.996;7.786;2023-07-31T09:19:34;4.27;;;2.03;;
16543;SDS011;8384;47.996;7.786;2023-07-31T09:22:02;2.87;;;1.70;;
16543;SDS011;8384;47.996;7.786;2023-07-31T09:24:28;4.50;;;1.90;;
16543;SDS011;8384;47.996;7.786;2023-07-31T09:26:55;3.40;;;1.60;;
16543;SDS011;8384;47.996;7.786;2023-07-31T09:29:21;4.27;;;1.90;;
16543;SDS011;8384;47.996;7.786;2023-07-31T09:31:46;4.77;;;2.10;;
16543;SDS011;8384;47.996;7.786;2023-07-31T09:34:12;6.27;;;1.80;;
16543;SDS011;8384;47.996;7.786;2023-07-31T09:36:42;3.63;;;1.90;;
16543;SDS011;8384;47.996;7.786;2023-07-31T09:39:10;4.07;;;1.90;;
16543;SDS011;8384;47.996;7.786;2023-07-31T09:41:39;3.63;;;1.63;;
16543;SDS011;8384;47.996;7.786;2023-07-31T09:44:07;3.60;;;1.90;;
16543;SDS011;8384;47.996;7.786;2023-07-31T09:46:34;3.27;;;2.00;;
16543;SDS011;8384;47.996;7.786;2023-07-31T09:49:12;3.67;;;1.83;;
16543;SDS011;8384;47.996;7.786;2023-07-31T09:51:39;3.87;;;1.83;;
16543;SDS011;8384;47.996;7.786;2023-07-31T09:54:12;5.67;;;2.27;;
16543;SDS011;8384;47.996;7.786;2023-07-31T09:56:42;3.67;;;1.90;;
16543;SDS011;8384;47.996;7.786;2023-07-31T09:59:12;7.70;;;2.20;;
16543;SDS011;8384;47.996;7.786;2023-07-31T10:01:40;3.97;;;1.97;;
16543;SDS011;8384;47.996;7.786;2023-07-31T10:04:07;4.77;;;2.00;;
16543;SDS011;8384;47.996;7.786;2023-07-31T10:06:34;4.50;;;2.17;;
16543;SDS011;8384;47.996;7.786;2023-07-31T10:09:00;4.33;;;2.20;;
16543;SDS011;8384;47.996;7.786;2023-07-31T10:11:28;3.00;;;2.10;;
16543;SDS011;8384;47.996;7.786;2023-07-31T10:13:55;3.83;;;2.00;;
16543;SDS011;8384;47.996;7.786;2023-07-31T10:16:21;3.57;;;1.87;;
16543;SDS011;8384;47.996;7.786;2023-07-31T10:18:47;3.70;;;2.00;;
16543;SDS011;8384;47.996;7.786;2023-07-31T10:21:13;3.37;;;2.00;;
16543;SDS011;8384;47.996;7.786;2023-07-31T10:23:39;4.90;;;2.37;;
16543;SDS011;8384;47.996;7.786;2023-07-31T10:26:05;3.97;;;1.97;;
16543;SDS011;8384;47.996;7.786;2023-07-31T10:28:32;4.67;;;1.97;;
16543;SDS011;8384;47.996;7.786;2023-07-31T10:30:57;3.37;;;2.37;;
16543;SDS011;8384;47.996;7.786;2023-07-31T10:33:23;4.53;;;2.30;;
16543;SDS011;8384;47.996;7.786;2023-07-31T10:35:48;3.93;;;2.03;;
16543;SDS011;8384;47.996;7.786;2023-07-31T10:38:14;4.30;;;2.00;;
16543;SDS011;8384;47.996;7.786;2023-07-31T10:40:39;4.07;;;1.93;;
16543;SDS011;8384;47.996;7.786;2023-07-31T10:43:05;3.80;;;1.90;;
16543;SDS011;8384;47.996;7.786;2023-07-31T10:45:34;6.50;;;2.27;;
16543;SDS011;8384;47.996;7.786;2023-07-31T10:48:07;3.43;;;2.33;;
16543;SDS011;8384;47.996;7.786;2023-07-31T10:50:38;5.00;;;2.20;;
16543;SDS011;8384;47.996;7.786;2023-07-31T10:53:21;4.33;;;2.33;;
16543;SDS011;8384;47.996;7.786;2023-07-31T10:55:52;3.77;;;2.17;;
16543;SDS011;8384;47.996;7.786;2023-07-31T10:58:18;5.33;;;2.10;;
16543;SDS011;8384;47.996;7.786;2023-07-31T11:00:45;3.90;;;2.10;;
16543;SDS011;8384;47.996;7.786;2023-07-31T11:03:12;4.17;;;1.90;;
16543;SDS011;8384;47.996;7.786;2023-07-31T11:05:48;4.37;;;1.93;;
16543;SDS011;8384;47.996;7.786;2023-07-31T11:08:21;4.03;;;2.30;;
16543;SDS011;8384;47.996;7.786;2023-07-31T11:10:49;3.00;;;2.03;;
16543;SDS011;8384;47.996;7.786;2023-07-31T11:13:30;2.47;;;1.80;;
16543;SDS011;8384;47.996;7.786;2023-07-31T11:16:05;4.20;;;2.13;;
16543;SDS011;8384;47.996;7.786;2023-07-31T11:18:31;3.83;;;1.93;;
16543;SDS011;8384;47.996;7.786;2023-07-31T11:20:56;4.50;;;2.47;;
16543;SDS011;8384;47.996;7.786;2023-07-31T11:23:21;2.83;;;2.00;;
16543;SDS011;8384;47.996;7.786;2023-07-31T11:25:47;3.90;;;2.17;;
16543;SDS011;8384;47.996;7.786;2023-07-31T11:28:14;3.47;;;2.07;;
16543;SDS011;8384;47.996;7.786;2023-07-31T11:30:41;4.27;;;2.27;;
16543;SDS011;8384;47.996;7.786;2023-07-31T11:33:08;3.43;;;2.23;;
16543;SDS011;8384;47.996;7.786;2023-07-31T11:35:56;3.43;;;1.80;;
16543;SDS011;8384;47.996;7.786;2023-07-31T11:38:24;6.67;;;1.90;;
16543;SDS011;8384;47.996;7.786;2023-07-31T11:40:54;4.50;;;2.70;;
16543;SDS011;8384;47.996;7.786;2023-07-31T11:43:22;4.30;;;2.23;;
16543;SDS011;8384;47.996;7.786;2023-07-31T11:45:48;4.57;;;2.20;;
16543;SDS011;8384;47.996;7.786;2023-07-31T11:48:22;4.87;;;1.93;;
16543;SDS011;8384;47.996;7.786;2023-07-31T11:50:56;3.63;;;2.23;;
16543;SDS011;8384;47.996;7.786;2023-07-31T11:53:28;4.00;;;2.37;;
16543;SDS011;8384;47.996;7.786;2023-07-31T11:55:59;6.43;;;2.43;;
16543;SDS011;8384;47.996;7.786;2023-07-31T11:58:28;4.10;;;2.33;;
16543;SDS011;8384;47.996;7.786;2023-07-31T12:00:54;3.30;;;1.90;;
16543;SDS011;8384;47.996;7.786;2023-07-31T12:03:21;3.37;;;2.20;;
16543;SDS011;8384;47.996;7.786;2023-07-31T12:05:47;3.23;;;2.30;;
16543;SDS011;8384;47.996;7.786;2023-07-31T12:08:13;4.33;;;2.07;;
16543;SDS011;8384;47.996;7.786;2023-07-31T12:10:38;3.20;;;2.33;;
16543;SDS011;8384;47.996;7.786;2023-07-31T12:13:09;2.77;;;2.10;;
16543;SDS011;8384;47.996;7.786;2023-07-31T12:15:41;4.80;;;2.30;;
16543;SDS011;8384;47.996;7.786;2023-07-31T12:20:35;3.30;;;2.10;;
16543;SDS011;8384;47.996;7.786;2023-07-31T12:23:04;2.80;;;2.07;;
16543;SDS011;8384;47.996;7.786;2023-07-31T12:25:30;3.33;;;2.23;;
16543;SDS011;8384;47.996;7.786;2023-07-31T12:27:57;4.33;;;2.40;;
16543;SDS011;8384;47.996;7.786;2023-07-31T12:30:27;2.80;;;2.00;;
16543;SDS011;8384;47.996;7.786;2023-07-31T12:32:57;4.63;;;2.33;;
16543;SDS011;8384;47.996;7.786;2023-07-31T12:35:22;3.53;;;2.07;;
16543;SDS011;8384;47.996;7.786;2023-07-31T12:37:47;3.70;;;2.17;;
16543;SDS011;8384;47.996;7.786;2023-07-31T12:40:13;4.80;;;2.27;;
16543;SDS011;8384;47.996;7.786;2023-07-31T12:42:38;3.53;;;2.17;;
16543;SDS011;8384;47.996;7.786;2023-07-31T12:45:04;3.30;;;1.90;;
16543;SDS011;8384;47.996;7.786;2023-07-31T12:47:29;3.37;;;2.20;;
16543;SDS011;8384;47.996;7.786;2023-07-31T12:49:55;3.50;;;2.20;;
16543;SDS011;8384;47.996;7.786;2023-07-31T12:52:20;5.00;;;2.40;;
16543;SDS011;8384;47.996;7.786;2023-07-31T12:54:45;5.30;;;2.70;;
16543;SDS011;8384;47.996;7.786;2023-07-31T12:57:11;2.57;;;2.30;;
16543;SDS011;8384;47.996;7.786;2023-07-31T12:59:36;2.70;;;2.20;;
16543;SDS011;8384;47.996;7.786;2023-07-31T13:02:01;5.83;;;2.60;;
16543;SDS011;8384;47.996;7.786;2023-07-31T13:04:27;4.20;;;2.60;;
16543;SDS011;8384;47.996;7.786;2023-07-31T13:06:52;4.63;;;2.63;;
16543;SDS011;8384;47.996;7.786;2023-07-31T13:09:17;5.33;;;2.57;;
16543;SDS011;8384;47.996;7.786;2023-07-31T13:11:43;4.37;;;2.63;;
16543;SDS011;8384;47.996;7.786;2023-07-31T13:14:08;3.17;;;2.50;;
16543;SDS011;8384;47.996;7.786;2023-07-31T13:16:34;3.30;;;2.37;;
16543;SDS011;8384;47.996;7.786;2023-07-31T13:18:59;3.70;;;2.67;;
16543;SDS011;8384;47.996;7.786;2023-07-31T13:21:26;4.30;;;2.47;;
16543;SDS011;8384;47.996;7.786;2023-07-31T13:23:51;4.27;;;2.27;;
16543;SDS011;8384;47.996;7.786;2023-07-31T13:26:16;4.10;;;2.40;;
16543;SDS011;8384;47.996;7.786;2023-07-31T13:28:41;4.87;;;2.40;;
16543;SDS011;8384;47.996;7.786;2023-07-31T13:31:07;4.43;;;2.57;;
16543;SDS011;8384;47.996;7.786;2023-07-31T13:33:32;3.77;;;2.27;;
16543;SDS011;8384;47.996;7.786;2023-07-31T13:35:57;5.07;;;2.87;;
16543;SDS011;8384;47.996;7.786;2023-07-31T13:38:23;2.90;;;2.47;;
16543;SDS011;8384;47.996;7.786;2023-07-31T13:40:48;3.60;;;2.70;;
16543;SDS011;8384;47.996;7.786;2023-07-31T13:43:14;4.60;;;2.50;;
16543;SDS011;8384;47.996;7.786;2023-07-31T13:45:39;4.00;;;2.27;;
16543;SDS011;8384;47.996;7.786;2023-07-31T13:48:05;3.20;;;2.43;;
16543;SDS011;8384;47.996;7.786;2023-07-31T13:50:30;3.03;;;2.40;;
16543;SDS011;8384;47.996;7.786;2023-07-31T13:52:55;2.77;;;2.40;;
16543;SDS011;8384;47.996;7.786;2023-07-31T13:55:21;3.80;;;2.60;;
16543;SDS011;8384;47.996;7.786;2023-07-31T13:57:47;2.40;;;2.10;;
16543;SDS011;8384;47.996;7.786;2023-07-31T14:00:12;3.87;;;2.60;;
16543;SDS011;8384;47.996;7.786;2023-07-31T14:02:38;5.77;;;2.70;;
16543;SDS011;8384;47.996;7.786;2023-07-31T14:05:06;3.53;;;2.60;;
16543;SDS011;8384;47.996;7.786;2023-07-31T14:07:34;3.20;;;2.37;;
16543;SDS011;8384;47.996;7.786;2023-07-31T14:09:59;3.00;;;2.70;;
16543;SDS011;8384;47.996;7.786;2023-07-31T14:12:25;3.80;;;2.30;;
16543;SDS011;8384;47.996;7.786;2023-07-31T14:14:50;5.10;;;2.60;;
16543;SDS011;8384;47.996;7.786;2023-07-31T14:17:18;3.20;;;2.40;;
16543;SDS011;8384;47.996;7.786;2023-07-31T14:19:43;3.57;;;2.80;;
16543;SDS011;8384;47.996;7.786;2023-07-31T14:22:08;4.07;;;2.40;;
16543;SDS011;8384;47.996;7.786;2023-07-31T14:24:34;2.80;;;2.47;;
16543;SDS011;8384;47.996;7.786;2023-07-31T14:26:59;3.37;;;2.43;;
16543;SDS011;8384;47.996;7.786;2023-07-31T14:29:24;3.87;;;2.30;;
16543;SDS011;8384;47.996;7.786;2023-07-31T14:31:50;4.60;;;2.20;;
16543;SDS011;8384;47.996;7.786;2023-07-31T14:34:15;2.83;;;2.10;;
16543;SDS011;8384;47.996;7.786;2023-07-31T14:36:41;4.57;;;2.20;;
16543;SDS011;8384;47.996;7.786;2023-07-31T14:39:07;3.73;;;2.37;;
16543;SDS011;8384;47.996;7.786;2023-07-31T14:41:32;2.10;;;1.90;;
16543;SDS011;8384;47.996;7.786;2023-07-31T14:43:57;3.60;;;2.07;;
16543;SDS011;8384;47.996;7.786;2023-07-31T14:46:22;3.80;;;2.30;;
16543;SDS011;8384;47.996;7.786;2023-07-31T14:48:48;3.47;;;2.17;;
16543;SDS011;8384;47.996;7.786;2023-07-31T14:51:13;3.80;;;2.33;;
16543;SDS011;8384;47.996;7.786;2023-07-31T14:53:39;4.07;;;2.33;;
16543;SDS011;8384;47.996;7.786;2023-07-31T14:56:04;3.17;;;2.40;;
16543;SDS011;8384;47.996;7.786;2023-07-31T14:58:30;3.83;;;2.40;;
16543;SDS011;8384;47.996;7.786;2023-07-31T15:00:55;3.43;;;2.40;;
16543;SDS011;8384;47.996;7.786;2023-07-31T15:03:20;2.20;;;2.00;;